Time;durP1;ratioP1;P1;durP2;ratioP2;P2;SDS_P1;SDS_P2;PMS_P1;PMS_P2;Temp;Humidity;BMP_temperature;BMP_pressure;BME280_temperature;BME280_humidity;BME280_pressure;Samples;Min_cycle;Max_cycle;Signal;HPM_P1;HPM_P2
2023/05/16 00:01:40;;;;;;;1999.90;999.90;;;10.70;99.90;;;;;;4995184;28;20233;-71
2023/05/16 00:04:06;;;;;;;1999.90;999.90;;;10.60;99.90;;;;;;4995372;28;20176;-71
2023/05/16 00:06:32;;;;;;;1999.90;999.90;;;10.70;99.90;;;;;;4996016;28;20537;-71
2023/05/16 00:08:58;;;;;;;1999.90;999.90;;;10.60;99.90;;;;;;4996676;28;20197;-70
2023/05/16 00:11:23;;;;;;;1999.90;999.90;;;10.70;99.90;;;;;;4997468;28;20397;-70
2023/05/16 00:13:50;;;;;;;1999.90;999.90;;;10.70;99.90;;;;;;4996110;28;20475;-70
2023/05/16 00:16:15;;;;;;;1999.90;999.90;;;10.70;99.90;;;;;;4996083;28;20177;-70
2023/05/16 00:18:44;;;;;;;1999.90;999.90;;;10.50;99.90;;;;;;4995838;28;20918;-70
2023/05/16 00:21:10;;;;;;;1999.90;999.90;;;10.50;99.90;;;;;;4996706;28;20268;-71
2023/05/16 00:23:35;;;;;;;1999.90;999.90;;;10.60;99.90;;;;;;4995523;28;20504;-70
2023/05/16 00:26:01;;;;;;;1999.90;999.90;;;10.60;99.90;;;;;;4995898;28;20170;-70
2023/05/16 00:28:26;;;;;;;1999.90;999.90;;;10.70;99.90;;;;;;4996073;28;20221;-71
2023/05/16 00:30:52;;;;;;;1999.90;999.90;;;10.50;99.90;;;;;;4996850;28;20166;-70
2023/05/16 00:33:18;;;;;;;1999.90;999.90;;;10.40;99.90;;;;;;4996252;28;20173;-69
2023/05/16 00:35:43;;;;;;;1999.90;999.90;;;10.40;99.90;;;;;;4996063;28;20193;-69
2023/05/16 00:38:09;;;;;;;1999.90;999.90;;;10.40;99.90;;;;;;4996506;28;20178;-69
2023/05/16 00:40:34;;;;;;;1999.90;999.90;;;10.20;99.90;;;;;;4994148;28;20200;-70
2023/05/16 00:43:00;;;;;;;1999.90;999.90;;;10.30;99.90;;;;;;4993748;28;20204;-70
2023/05/16 00:45:26;;;;;;;1999.90;999.90;;;10.30;99.90;;;;;;4994005;28;20178;-70
2023/05/16 00:47:51;;;;;;;1999.90;999.90;;;10.40;99.90;;;;;;4993976;28;20162;-70
2023/05/16 00:50:17;;;;;;;1999.90;999.90;;;10.30;99.90;;;;;;4993891;28;20730;-70
2023/05/16 00:52:44;;;;;;;1999.90;999.90;;;10.30;99.90;;;;;;4993514;28;20205;-70
2023/05/16 00:55:09;;;;;;;1999.90;999.90;;;10.10;99.90;;;;;;4992952;28;20899;-70
2023/05/16 00:57:36;;;;;;;1999.90;999.90;;;10.00;99.90;;;;;;4993837;28;20405;-70
2023/05/16 01:00:10;;;;;;;1999.90;999.90;;;9.90;99.90;;;;;;4993554;28;20691;-70
2023/05/16 01:02:37;;;;;;;1999.90;999.90;;;9.80;99.90;;;;;;4993391;28;20538;-70
2023/05/16 01:05:07;;;;;;;1999.90;999.90;;;9.80;99.90;;;;;;4993572;28;20775;-70
2023/05/16 01:07:34;;;;;;;1999.90;999.90;;;9.80;99.90;;;;;;4993501;28;20776;-70
2023/05/16 01:10:00;;;;;;;1999.90;999.90;;;9.70;99.90;;;;;;4993701;28;21005;-70
2023/05/16 01:12:43;;;;;;;1999.90;999.90;;;9.70;99.90;;;;;;4993167;28;20453;-70
2023/05/16 01:15:13;;;;;;;1999.90;999.90;;;9.70;99.90;;;;;;4993472;28;20502;-70
2023/05/16 01:18:10;;;;;;;1999.90;999.90;;;9.80;99.90;;;;;;4993368;28;20909;-70
2023/05/16 01:21:06;;;;;;;1999.90;999.90;;;9.70;99.90;;;;;;4993263;28;20432;-70
2023/05/16 01:24:00;;;;;;;1999.90;999.90;;;9.60;99.90;;;;;;4993308;28;20460;-71
2023/05/16 01:26:27;;;;;;;1999.90;999.90;;;9.60;99.90;;;;;;4993279;28;20404;-71
2023/05/16 01:28:53;;;;;;;1999.90;999.90;;;9.60;99.90;;;;;;4993304;28;20446;-71
2023/05/16 01:31:22;;;;;;;1999.90;999.90;;;9.60;99.90;;;;;;4992907;28;20502;-70
2023/05/16 01:33:49;;;;;;;1999.90;999.90;;;9.70;99.90;;;;;;4993098;28;20409;-71
2023/05/16 01:36:30;;;;;;;1999.90;999.90;;;9.60;99.90;;;;;;4993107;28;20823;-71
2023/05/16 01:39:00;;;;;;;1999.90;999.90;;;9.50;99.90;;;;;;4992767;28;20463;-71
2023/05/16 01:41:56;;;;;;;1999.90;999.90;;;9.40;99.90;;;;;;4992887;28;20447;-70
2023/05/16 01:44:45;;;;;;;1999.90;999.90;;;9.50;99.90;;;;;;4993026;28;20420;-71
2023/05/16 01:47:13;;;;;;;1999.90;999.90;;;9.40;99.90;;;;;;4993160;28;20408;-71
2023/05/16 01:49:57;;;;;;;1999.90;999.90;;;9.40;99.90;;;;;;4992815;28;20426;-71
2023/05/16 01:52:30;;;;;;;1999.90;999.90;;;9.40;99.90;;;;;;4992606;28;20407;-71
2023/05/16 01:54:57;;;;;;;1999.90;999.90;;;9.40;99.90;;;;;;4992730;28;20487;-70
2023/05/16 01:57:25;;;;;;;1999.90;999.90;;;9.30;99.90;;;;;;4992771;28;20408;-71
2023/05/16 01:59:51;;;;;;;1999.90;999.90;;;9.30;99.90;;;;;;4992625;28;20524;-71
2023/05/16 02:02:18;;;;;;;1999.90;999.90;;;9.50;99.90;;;;;;4992444;28;20487;-71
2023/05/16 02:04:43;;;;;;;1999.90;999.90;;;9.30;99.90;;;;;;4992586;28;20412;-71
2023/05/16 02:07:09;;;;;;;1999.90;999.90;;;9.30;99.90;;;;;;4992490;28;20507;-71
2023/05/16 02:09:35;;;;;;;1999.90;999.90;;;9.40;99.90;;;;;;4992572;28;20196;-71
2023/05/16 02:12:01;;;;;;;1999.90;999.90;;;9.30;99.90;;;;;;4992266;28;20182;-71
2023/05/16 02:14:26;;;;;;;1999.90;999.90;;;9.20;99.90;;;;;;4992744;28;20180;-71
2023/05/16 02:16:52;;;;;;;1999.90;999.90;;;9.20;99.90;;;;;;4992644;28;20901;-71
2023/05/16 02:19:17;;;;;;;1999.90;999.90;;;9.20;99.90;;;;;;4992486;28;20621;-71
2023/05/16 02:21:43;;;;;;;1999.90;999.90;;;9.20;99.90;;;;;;4992156;28;20181;-71
2023/05/16 02:24:09;;;;;;;1999.90;999.90;;;9.20;99.90;;;;;;4992456;28;20164;-71
2023/05/16 02:26:34;;;;;;;1999.90;999.90;;;9.20;99.90;;;;;;4992235;28;20543;-71
2023/05/16 02:29:01;;;;;;;1999.90;999.90;;;9.10;99.90;;;;;;4992364;28;20193;-71
2023/05/16 02:31:27;;;;;;;1999.90;999.90;;;9.20;99.90;;;;;;4992161;28;20203;-71
2023/05/16 02:33:53;;;;;;;1999.90;999.90;;;9.10;99.90;;;;;;4992385;28;20412;-71
2023/05/16 02:36:20;;;;;;;1999.90;999.90;;;9.10;99.90;;;;;;4992538;28;20410;-71
2023/05/16 02:38:45;;;;;;;1999.90;999.90;;;9.20;99.90;;;;;;4992126;28;20220;-71
2023/05/16 02:41:11;;;;;;;1999.90;999.90;;;9.20;99.90;;;;;;4992004;28;20459;-71
2023/05/16 02:43:36;;;;;;;1999.90;999.90;;;9.20;99.90;;;;;;4992207;28;20196;-71
2023/05/16 02:46:27;;;;;;;1999.90;999.90;;;9.20;99.90;;;;;;4992317;28;20204;-71
2023/05/16 02:48:53;;;;;;;1999.90;999.90;;;9.20;99.90;;;;;;4992284;28;20603;-71
2023/05/16 02:51:24;;;;;;;1999.90;999.90;;;9.20;99.90;;;;;;4991968;28;20400;-71
2023/05/16 02:53:50;;;;;;;1999.90;999.90;;;9.20;99.90;;;;;;4992375;28;20423;-71
2023/05/16 02:56:16;;;;;;;1999.90;999.90;;;9.20;99.90;;;;;;4992332;28;20419;-71
2023/05/16 02:58:42;;;;;;;1999.90;999.90;;;9.20;99.90;;;;;;4992109;28;20787;-71
2023/05/16 03:01:08;;;;;;;1999.90;999.90;;;9.40;99.90;;;;;;4991897;28;20263;-71
2023/05/16 03:03:35;;;;;;;1999.90;999.90;;;9.20;99.90;;;;;;4992103;28;20460;-71
2023/05/16 03:06:01;;;;;;;1999.90;999.90;;;9.20;99.90;;;;;;4992032;28;20407;-71
2023/05/16 03:08:27;;;;;;;1999.90;999.90;;;9.30;99.90;;;;;;4992071;28;20896;-71
2023/05/16 03:10:52;;;;;;;1999.90;999.90;;;9.30;99.90;;;;;;4992479;28;20173;-71
2023/05/16 03:13:18;;;;;;;1999.90;999.90;;;9.20;99.90;;;;;;4992361;28;20175;-71
2023/05/16 03:15:44;;;;;;;1999.90;999.90;;;9.20;99.90;;;;;;4992209;28;20184;-71
2023/05/16 03:18:10;;;;;;;1999.90;999.90;;;9.20;99.90;;;;;;4992564;28;20213;-71
2023/05/16 03:20:36;;;;;;;1999.90;999.90;;;9.30;99.90;;;;;;4995549;28;20475;-71
2023/05/16 03:23:02;;;;;;;1999.90;999.90;;;9.30;99.90;;;;;;4995328;28;20490;-71
2023/05/16 03:25:28;;;;;;;1999.90;999.90;;;9.30;99.90;;;;;;4995513;28;20417;-71
2023/05/16 03:27:53;;;;;;;1999.90;999.90;;;9.20;99.90;;;;;;4995532;28;20401;-71
2023/05/16 03:30:19;;;;;;;1999.90;999.90;;;9.30;99.90;;;;;;4995556;28;20228;-71
2023/05/16 03:32:45;;;;;;;1999.90;999.90;;;9.30;99.90;;;;;;4995428;28;20244;-71
2023/05/16 03:35:11;;;;;;;1999.90;999.90;;;9.20;99.90;;;;;;4995063;28;20504;-71
2023/05/16 03:37:37;;;;;;;1999.90;999.90;;;9.20;99.90;;;;;;4995545;28;20495;-71
2023/05/16 03:40:07;;;;;;;1999.90;999.90;;;9.10;99.90;;;;;;4995710;28;20209;-71
2023/05/16 03:42:32;;;;;;;1999.90;999.90;;;9.10;99.90;;;;;;4995471;28;20451;-71
2023/05/16 03:44:58;;;;;;;1999.90;999.90;;;9.20;99.90;;;;;;4995518;28;20710;-71
2023/05/16 03:47:24;;;;;;;1999.90;999.90;;;9.00;99.90;;;;;;4995420;28;20694;-71
2023/05/16 03:49:49;;;;;;;1999.90;999.90;;;9.00;99.90;;;;;;4995375;28;20196;-71
2023/05/16 03:52:15;;;;;;;1999.90;999.90;;;9.00;99.90;;;;;;4995288;28;20256;-71
2023/05/16 03:54:40;;;;;;;1999.90;999.90;;;9.10;99.90;;;;;;4995368;28;20179;-71
2023/05/16 03:57:06;;;;;;;1999.90;999.90;;;9.00;99.90;;;;;;4995285;28;20331;-71
2023/05/16 03:59:33;;;;;;;1999.90;999.90;;;8.90;99.90;;;;;;4995402;28;20192;-71
2023/05/16 04:01:58;;;;;;;1999.90;999.90;;;8.90;99.90;;;;;;4995165;28;20237;-72
2023/05/16 04:04:24;;;;;;;1999.90;999.90;;;8.80;99.90;;;;;;4995396;28;20792;-72
2023/05/16 04:06:50;;;;;;;1999.90;999.90;;;8.80;99.90;;;;;;4995199;28;20183;-71
2023/05/16 04:09:16;;;;;;;1999.90;999.90;;;8.70;99.90;;;;;;4994924;28;20423;-71
2023/05/16 04:11:42;;;;;;;1999.90;999.90;;;8.70;99.90;;;;;;4994684;28;20228;-71
2023/05/16 04:14:07;;;;;;;1999.90;999.90;;;8.60;99.90;;;;;;4995366;28;20184;-71
2023/05/16 04:16:33;;;;;;;1999.90;999.90;;;8.50;99.90;;;;;;4994953;28;20420;-72
2023/05/16 04:18:59;;;;;;;1999.90;999.90;;;8.40;99.90;;;;;;4994704;28;20196;-71
2023/05/16 04:21:24;;;;;;;1999.90;999.90;;;8.30;99.90;;;;;;4994424;28;20179;-71
2023/05/16 04:23:50;;;;;;;1999.90;999.90;;;8.30;99.90;;;;;;4994757;28;20674;-71
2023/05/16 04:26:15;;;;;;;1999.90;999.90;;;8.20;99.90;;;;;;4994526;28;20701;-71
2023/05/16 04:28:41;;;;;;;1999.90;999.90;;;8.20;99.90;;;;;;4994555;28;20203;-71
2023/05/16 04:31:07;;;;;;;1999.90;999.90;;;8.10;99.90;;;;;;4993058;28;20244;-72
2023/05/16 04:33:33;;;;;;;1999.90;999.90;;;8.10;99.90;;;;;;4994448;28;20171;-71
2023/05/16 04:35:59;;;;;;;1999.90;999.90;;;8.20;99.90;;;;;;4994444;28;20185;-71
2023/05/16 04:38:25;;;;;;;1999.90;999.90;;;8.00;99.90;;;;;;4994328;28;20781;-71
2023/05/16 04:40:51;;;;;;;1999.90;999.90;;;8.10;99.90;;;;;;4994596;28;20812;-70
2023/05/16 04:43:17;;;;;;;1999.90;999.90;;;8.10;99.90;;;;;;4994131;28;20458;-70
2023/05/16 04:45:43;;;;;;;1999.90;999.90;;;8.10;99.90;;;;;;4994338;28;20262;-71
2023/05/16 04:48:10;;;;;;;1999.90;999.90;;;8.10;99.90;;;;;;4994141;28;20455;-71
2023/05/16 04:50:36;;;;;;;1999.90;999.90;;;8.10;99.90;;;;;;4993989;28;20228;-71
2023/05/16 04:53:01;;;;;;;1999.90;999.90;;;8.10;99.90;;;;;;4993926;28;20435;-71
2023/05/16 04:55:27;;;;;;;1999.90;999.90;;;8.20;99.90;;;;;;4993937;28;20219;-71
2023/05/16 04:57:52;;;;;;;1999.90;999.90;;;8.20;99.90;;;;;;4994401;28;20191;-71
2023/05/16 05:00:18;;;;;;;1999.90;999.90;;;8.20;99.90;;;;;;4993717;28;20621;-71
2023/05/16 05:02:44;;;;;;;1999.90;999.90;;;8.30;99.90;;;;;;4993669;28;20215;-71
2023/05/16 05:05:10;;;;;;;1999.90;999.90;;;8.20;99.90;;;;;;4994583;28;20211;-71
2023/05/16 05:07:35;;;;;;;1999.90;999.90;;;8.20;99.90;;;;;;4976487;28;20824;-71
2023/05/16 05:10:01;;;;;;;1999.90;999.90;;;8.20;99.90;;;;;;4994354;28;20511;-71
2023/05/16 05:12:26;;;;;;;1999.90;999.90;;;8.30;99.90;;;;;;4994007;28;20520;-71
2023/05/16 05:14:52;;;;;;;1999.90;999.90;;;8.20;99.90;;;;;;4993951;28;20179;-70
2023/05/16 05:17:20;;;;;;;1999.90;999.90;;;8.20;99.90;;;;;;4994188;28;20174;-71
2023/05/16 05:19:47;;;;;;;1999.90;999.90;;;8.20;99.90;;;;;;4995085;28;20252;-70
2023/05/16 05:22:13;;;;;;;1999.90;999.90;;;8.20;99.90;;;;;;4993990;28;20462;-70
2023/05/16 05:24:38;;;;;;;1999.90;999.90;;;8.20;99.90;;;;;;4994470;28;20412;-71
2023/05/16 05:27:04;;;;;;;1999.90;999.90;;;8.30;99.90;;;;;;4994639;28;20461;-71
2023/05/16 05:29:30;;;;;;;1999.90;999.90;;;8.30;99.90;;;;;;4995646;28;20283;-71
2023/05/16 05:31:56;;;;;;;1999.90;999.90;;;8.30;99.90;;;;;;4994579;28;20416;-71
2023/05/16 05:34:21;;;;;;;1999.90;999.90;;;8.30;99.90;;;;;;4994051;28;20576;-71
2023/05/16 05:36:47;;;;;;;1999.90;999.90;;;8.30;99.90;;;;;;4995370;28;20174;-71
2023/05/16 05:39:12;;;;;;;1999.90;999.90;;;8.30;99.90;;;;;;4995414;28;20199;-71
2023/05/16 05:41:38;;;;;;;1999.90;999.90;;;8.40;99.90;;;;;;4994815;28;20203;-71
2023/05/16 05:44:04;;;;;;;1999.90;999.90;;;8.40;99.90;;;;;;4994810;28;20214;-70
2023/05/16 05:46:31;;;;;;;1999.90;999.90;;;8.40;99.90;;;;;;4995092;28;20818;-71
2023/05/16 05:48:57;;;;;;;1999.90;999.90;;;8.40;99.90;;;;;;4994779;28;20491;-71
2023/05/16 05:51:23;;;;;;;1999.90;999.90;;;8.50;99.90;;;;;;4993792;28;20570;-70
2023/05/16 05:53:49;;;;;;;1999.90;999.90;;;8.50;99.90;;;;;;4994379;28;20451;-71
2023/05/16 05:56:15;;;;;;;1999.90;999.90;;;8.50;99.90;;;;;;4993787;28;20831;-71
2023/05/16 05:58:41;;;;;;;1999.90;999.90;;;8.60;99.90;;;;;;4993739;28;20278;-71
2023/05/16 06:01:07;;;;;;;1999.90;999.90;;;8.50;99.90;;;;;;4992596;28;20437;-71
2023/05/16 06:03:32;;;;;;;1999.90;999.90;;;8.60;99.90;;;;;;4992691;28;20455;-71
2023/05/16 06:05:58;;;;;;;1999.90;999.90;;;8.70;99.90;;;;;;4992622;28;20240;-71
2023/05/16 06:08:24;;;;;;;1999.90;999.90;;;8.80;99.90;;;;;;4992668;28;20176;-72
2023/05/16 06:10:49;;;;;;;1999.90;999.90;;;8.70;99.90;;;;;;4958967;28;20169;-71
2023/05/16 06:13:18;;;;;;;1999.90;999.90;;;8.70;99.90;;;;;;4975136;28;20208;-71
2023/05/16 06:15:49;;;;;;;1999.90;999.90;;;8.70;99.90;;;;;;4975185;28;20180;-71
2023/05/16 06:18:15;;;;;;;1999.90;999.90;;;8.70;99.90;;;;;;4992381;28;20423;-71
2023/05/16 06:20:40;;;;;;;1999.90;999.90;;;8.70;99.90;;;;;;4992366;28;20428;-71
2023/05/16 06:23:06;;;;;;;1999.90;999.90;;;8.80;99.90;;;;;;4992145;28;20593;-71
2023/05/16 06:25:32;;;;;;;1999.90;999.90;;;8.80;99.90;;;;;;4992448;28;20168;-71
2023/05/16 06:27:57;;;;;;;1999.90;999.90;;;8.80;99.90;;;;;;4992453;28;20223;-71
2023/05/16 06:30:23;;;;;;;1999.90;999.90;;;9.00;99.90;;;;;;4992426;28;20196;-72
2023/05/16 06:32:48;;;;;;;1999.90;999.90;;;9.00;99.90;;;;;;4992081;28;20614;-71
2023/05/16 06:35:14;;;;;;;1999.90;999.90;;;9.10;99.90;;;;;;4992473;28;20177;-71
2023/05/16 06:37:40;;;;;;;1999.90;999.90;;;9.10;99.90;;;;;;4992396;28;20185;-71
2023/05/16 06:40:06;;;;;;;1999.90;999.90;;;9.10;99.90;;;;;;4992118;28;20220;-71
2023/05/16 06:42:32;;;;;;;1999.90;999.90;;;9.20;99.90;;;;;;4991958;28;20220;-71
2023/05/16 06:44:58;;;;;;;1999.90;999.90;;;9.20;99.90;;;;;;4992328;28;20404;-71
2023/05/16 06:47:23;;;;;;;1999.90;999.90;;;9.30;99.90;;;;;;4992209;28;20169;-72
2023/05/16 06:49:49;;;;;;;1999.90;999.90;;;9.40;99.90;;;;;;4992239;28;20212;-72
2023/05/16 06:52:15;;;;;;;1999.90;999.90;;;9.60;99.90;;;;;;4992197;28;20263;-71
2023/05/16 06:54:41;;;;;;;1999.90;999.90;;;9.70;99.90;;;;;;4995108;28;20953;-71
2023/05/16 06:57:07;;;;;;;1999.90;999.90;;;9.80;99.90;;;;;;4996108;28;20170;-71
2023/05/16 06:59:34;;;;;;;1999.90;999.90;;;10.10;99.90;;;;;;4996015;28;20603;-72
2023/05/16 07:02:00;;;;;;;1999.90;999.90;;;10.20;99.90;;;;;;4995556;28;20411;-72
2023/05/16 07:04:25;;;;;;;1999.90;999.90;;;10.20;99.90;;;;;;4995903;28;20412;-71
2023/05/16 07:06:52;;;;;;;1999.90;999.90;;;10.30;99.90;;;;;;4995946;28;20397;-71
2023/05/16 07:09:17;;;;;;;1999.90;999.90;;;10.30;99.90;;;;;;4996007;28;20424;-72
2023/05/16 07:11:43;;;;;;;1999.90;999.90;;;10.30;99.90;;;;;;4995484;28;20405;-71
2023/05/16 07:14:08;;;;;;;1999.90;999.90;;;10.30;99.90;;;;;;4995842;28;20181;-71
2023/05/16 07:16:34;;;;;;;1999.90;999.90;;;10.20;99.90;;;;;;4995676;28;20166;-71
2023/05/16 07:19:00;;;;;;;1999.90;999.90;;;10.10;99.90;;;;;;4995594;28;20229;-71
2023/05/16 07:21:26;;;;;;;1999.90;999.90;;;10.20;99.90;;;;;;4995366;28;20495;-71
2023/05/16 07:23:51;;;;;;;1999.90;999.90;;;10.10;99.90;;;;;;4995494;28;20241;-71
2023/05/16 07:26:17;;;;;;;1999.90;999.90;;;10.40;99.90;;;;;;4995517;28;20169;-71
2023/05/16 07:28:43;;;;;;;1999.90;999.90;;;10.50;99.90;;;;;;5002612;28;20213;-72
2023/05/16 07:31:08;;;;;;;1999.90;999.90;;;10.80;99.90;;;;;;4995053;28;20411;-72
2023/05/16 07:33:34;;;;;;;1999.90;999.90;;;10.90;99.90;;;;;;4995363;28;20180;-72
2023/05/16 07:36:00;;;;;;;1999.90;999.90;;;11.20;99.90;;;;;;4995379;28;20243;-72
2023/05/16 07:38:25;;;;;;;1999.90;999.90;;;11.60;99.90;;;;;;4995170;28;20186;-72
2023/05/16 07:40:51;;;;;;;1999.90;999.90;;;11.60;99.90;;;;;;4995040;28;20473;-71
2023/05/16 07:43:17;;;;;;;1999.90;999.90;;;11.60;99.90;;;;;;4995081;28;20691;-71
2023/05/16 07:45:42;;;;;;;1999.90;999.90;;;11.60;99.90;;;;;;4995130;28;20174;-71
2023/05/16 07:48:08;;;;;;;1999.90;999.90;;;11.30;99.90;;;;;;4995335;28;20197;-72
2023/05/16 07:50:34;;;;;;;1999.90;999.90;;;11.10;99.90;;;;;;4994893;28;20186;-72
2023/05/16 07:52:59;;;;;;;1999.90;999.90;;;11.10;99.90;;;;;;4994926;28;20667;-72
2023/05/16 07:55:25;;;;;;;1999.90;999.90;;;11.10;99.90;;;;;;4995136;28;20662;-72
2023/05/16 07:57:51;;;;;;;1999.90;999.90;;;11.10;99.90;;;;;;4995080;28;20672;-72
2023/05/16 08:00:17;;;;;;;1999.90;999.90;;;11.00;99.90;;;;;;4994800;28;20197;-72
2023/05/16 08:02:43;;;;;;;1999.90;999.90;;;11.10;99.90;;;;;;4994574;28;20221;-71
2023/05/16 08:05:09;;;;;;;1999.90;999.90;;;11.10;99.90;;;;;;4994613;28;20436;-71
2023/05/16 08:07:34;;;;;;;1999.90;999.90;;;11.30;99.90;;;;;;4994656;28;20694;-73
2023/05/16 08:10:00;;;;;;;1999.90;999.90;;;11.40;99.90;;;;;;4977293;28;20214;-72
2023/05/16 08:12:26;;;;;;;1999.90;999.90;;;11.70;99.90;;;;;;4994364;28;20510;-72
2023/05/16 08:14:52;;;;;;;1999.90;999.90;;;12.10;99.90;;;;;;4994599;28;20244;-73
2023/05/16 08:17:17;;;;;;;1999.90;999.90;;;12.60;99.90;;;;;;4994554;28;20409;-72
2023/05/16 08:19:43;;;;;;;1999.90;999.90;;;12.70;99.90;;;;;;4994382;28;20209;-72
2023/05/16 08:22:09;;;;;;;1999.90;999.90;;;12.80;99.90;;;;;;4994157;28;20176;-72
2023/05/16 08:24:35;;;;;;;1999.90;999.90;;;12.90;99.90;;;;;;4994443;28;20207;-72
2023/05/16 08:27:00;;;;;;;1999.90;999.90;;;13.10;99.90;;;;;;4994523;28;20192;-72
2023/05/16 08:29:26;;;;;;;1999.90;999.90;;;13.00;99.90;;;;;;4994241;28;20920;-72
2023/05/16 08:31:51;;;;;;;1999.90;999.90;;;12.60;99.90;;;;;;4994080;28;20254;-72
2023/05/16 08:34:17;;;;;;;1999.90;999.90;;;12.30;99.90;;;;;;4994282;28;20598;-72
2023/05/16 08:36:43;;;;;;;1999.90;999.90;;;11.90;99.90;;;;;;4994301;28;20186;-72
2023/05/16 08:39:12;;;;;;;1999.90;999.90;;;11.60;99.90;;;;;;4994079;28;20206;-72
2023/05/16 08:41:38;;;;;;;1999.90;999.90;;;11.40;99.90;;;;;;4993854;28;20420;-72
2023/05/16 08:44:04;;;;;;;1999.90;999.90;;;11.40;99.90;;;;;;4993997;28;20452;-72
2023/05/16 08:46:32;;;;;;;1999.90;999.90;;;11.50;99.90;;;;;;4994080;28;20405;-72
2023/05/16 08:48:59;;;;;;;1999.90;999.90;;;11.70;99.90;;;;;;4993989;28;20241;-72
2023/05/16 08:51:27;;;;;;;1999.90;999.90;;;11.80;99.90;;;;;;4993778;28;20405;-72
2023/05/16 08:54:12;;;;;;;1999.90;999.90;;;11.60;99.90;;;;;;4993884;28;20417;-72
2023/05/16 08:56:40;;;;;;;1999.90;999.90;;;11.50;99.90;;;;;;4993871;28;20477;-72
2023/05/16 08:59:06;;;;;;;1999.90;999.90;;;11.60;99.90;;;;;;4993923;28;20432;-72
2023/05/16 09:01:32;;;;;;;1999.90;999.90;;;11.70;99.90;;;;;;4993709;28;20896;-72
2023/05/16 09:03:59;;;;;;;1999.90;999.90;;;11.60;99.90;;;;;;4993994;28;20456;-72
2023/05/16 09:06:25;;;;;;;1999.90;999.90;;;11.70;99.90;;;;;;5009442;28;20491;-72
2023/05/16 09:08:51;;;;;;;1999.90;999.90;;;11.90;99.90;;;;;;5013110;28;20429;-72
2023/05/16 09:11:18;;;;;;;1999.90;999.90;;;12.20;99.90;;;;;;5013480;28;20864;-72
2023/05/16 09:13:44;;;;;;;1999.90;999.90;;;12.50;99.90;;;;;;5012965;28;20405;-72
2023/05/16 09:16:13;;;;;;;1999.90;999.90;;;13.00;99.90;;;;;;5012633;28;20411;-73
2023/05/16 09:18:41;;;;;;;1999.90;999.90;;;13.00;99.90;;;;;;5013016;28;20437;-72
2023/05/16 09:21:08;;;;;;;1999.90;999.90;;;13.10;99.90;;;;;;5012672;28;20410;-72
2023/05/16 09:23:34;;;;;;;1999.90;999.90;;;13.40;99.90;;;;;;5012826;28;20458;-72
2023/05/16 09:26:00;;;;;;;1999.90;999.90;;;13.30;99.90;;;;;;5013040;28;20434;-72
2023/05/16 09:28:25;;;;;;;1999.90;999.90;;;12.90;99.90;;;;;;5012808;28;20407;-72
2023/05/16 09:30:53;;;;;;;1999.90;999.90;;;12.80;99.90;;;;;;5012680;28;20170;-72
2023/05/16 09:33:21;;;;;;;1999.90;999.90;;;12.50;99.90;;;;;;5012677;28;20247;-72
2023/05/16 09:35:59;;;;;;;1999.90;999.90;;;12.30;99.90;;;;;;5008427;28;20409;-72
2023/05/16 09:38:27;;;;;;;1999.90;999.90;;;12.00;99.90;;;;;;4992944;28;20863;-72
2023/05/16 09:40:54;;;;;;;1999.90;999.90;;;12.20;99.90;;;;;;4993107;28;20438;-72
2023/05/16 09:43:24;;;;;;;1999.90;999.90;;;12.30;99.90;;;;;;4992835;28;20458;-72
2023/05/16 09:45:49;;;;;;;1999.90;999.90;;;12.50;99.90;;;;;;4992939;28;20403;-72
2023/05/16 09:48:16;;;;;;;1999.90;999.90;;;12.60;99.90;;;;;;4992955;28;20506;-72
2023/05/16 09:50:49;;;;;;;1999.90;999.90;;;12.90;99.90;;;;;;4992623;28;20338;-72
2023/05/16 09:53:15;;;;;;;1999.90;999.90;;;13.10;99.90;;;;;;4992599;28;20510;-72
2023/05/16 09:55:41;;;;;;;1999.90;999.90;;;13.20;99.90;;;;;;4992827;28;20487;-72
2023/05/16 09:58:06;;;;;;;1999.90;999.90;;;13.40;99.90;;;;;;4992953;28;20554;-72
2023/05/16 10:00:33;;;;;;;1999.90;999.90;;;13.50;99.90;;;;;;5008718;28;20214;-72
2023/05/16 10:03:00;;;;;;;1999.90;999.90;;;13.60;99.90;;;;;;5012059;28;20316;-72
2023/05/16 10:05:26;;;;;;;1999.90;999.90;;;13.30;99.90;;;;;;5012382;28;20404;-72
2023/05/16 10:07:56;;;;;;;1999.90;999.90;;;13.10;99.90;;;;;;5012524;28;20473;-72
2023/05/16 10:10:23;;;;;;;1999.90;999.90;;;12.90;99.90;;;;;;5012257;28;20523;-72
2023/05/16 10:12:50;;;;;;;1999.90;999.90;;;12.90;99.90;;;;;;5011933;28;20445;-72
2023/05/16 10:15:17;;;;;;;1999.90;999.90;;;13.00;99.90;;;;;;5012248;28;20423;-72
2023/05/16 10:17:49;;;;;;;1999.90;999.90;;;12.90;99.90;;;;;;5012228;28;20452;-72
2023/05/16 10:20:15;;;;;;;1999.90;999.90;;;12.90;99.90;;;;;;5012123;28;20944;-72
2023/05/16 10:22:45;;;;;;;1999.90;999.90;;;13.00;99.90;;;;;;5011941;28;20853;-72
2023/05/16 10:25:11;;;;;;;1999.90;999.90;;;13.20;99.90;;;;;;5012081;28;20410;-72
2023/05/16 10:27:38;;;;;;;1999.90;999.90;;;13.40;99.90;;;;;;5013417;28;20411;-72
2023/05/16 10:30:05;;;;;;;1999.90;999.90;;;13.30;99.90;;;;;;5016444;28;20187;-72
2023/05/16 10:32:32;;;;;;;1999.90;999.90;;;13.20;99.90;;;;;;5015829;28;20470;-72
2023/05/16 10:35:02;;;;;;;1999.90;999.90;;;13.30;99.90;;;;;;5006711;28;20424;-72
2023/05/16 10:37:32;;;;;;;1999.90;999.90;;;13.30;99.90;;;;;;4996553;28;20438;-72
2023/05/16 10:40:01;;;;;;;1999.90;999.90;;;13.40;99.90;;;;;;4996426;28;20516;-72
2023/05/16 10:42:26;;;;;;;1999.90;999.90;;;13.50;99.90;;;;;;4996047;28;20857;-72
2023/05/16 10:45:17;;;;;;;1999.90;999.90;;;13.50;99.90;;;;;;4996262;28;20426;-71
2023/05/16 10:47:57;;;;;;;1999.90;999.90;;;13.50;99.90;;;;;;4996325;28;20582;-71
2023/05/16 10:50:41;;;;;;;1999.90;999.90;;;13.60;99.90;;;;;;5015575;28;20531;-71
2023/05/16 10:53:18;;;;;;;1999.90;999.90;;;13.60;99.90;;;;;;5012298;28;20834;-72
2023/05/16 10:55:50;;;;;;;1999.90;999.90;;;13.60;99.90;;;;;;5015209;28;20423;-71
2023/05/16 10:58:40;;;;;;;1999.90;999.90;;;13.40;99.90;;;;;;5015027;28;20424;-71
2023/05/16 11:01:26;;;;;;;1999.90;999.90;;;13.30;99.90;;;;;;5014904;28;20408;-71
2023/05/16 11:03:58;;;;;;;1999.90;999.90;;;13.20;99.90;;;;;;5011250;28;20455;-72
2023/05/16 11:06:26;;;;;;;1999.90;999.90;;;13.30;99.90;;;;;;5014549;28;20407;-72
2023/05/16 11:09:05;;;;;;;1999.90;999.90;;;13.40;99.90;;;;;;5014082;28;20434;-71
2023/05/16 11:11:46;;;;;;;1999.90;999.90;;;13.80;99.90;;;;;;5002803;28;20419;-71
2023/05/16 11:14:33;;;;;;;1999.90;999.90;;;13.70;99.90;;;;;;5013787;28;20426;-71
2023/05/16 11:17:19;;;;;;;1999.90;999.90;;;13.70;99.90;;;;;;5012618;28;20417;-72
2023/05/16 11:19:51;;;;;;;1999.90;999.90;;;13.90;99.90;;;;;;5014892;28;20466;-72
2023/05/16 11:22:20;;;;;;;1999.90;999.90;;;14.20;99.90;;;;;;5014789;28;20404;-72
2023/05/16 11:24:59;;;;;;;1999.90;999.90;;;14.40;99.90;;;;;;5015005;28;20402;-72
2023/05/16 11:27:32;;;;;;;1999.90;999.90;;;14.80;99.90;;;;;;5015098;28;20488;-72
2023/05/16 11:30:04;;;;;;;1999.90;999.90;;;14.90;99.90;;;;;;5015119;28;20792;-72
2023/05/16 11:32:33;;;;;;;1999.90;999.90;;;14.80;99.90;;;;;;5014818;28;20514;-72
2023/05/16 11:34:59;;;;;;;1999.90;999.90;;;14.80;99.90;;;;;;5014903;28;20408;-71
2023/05/16 11:37:25;;;;;;;1999.90;999.90;;;14.70;99.90;;;;;;5014922;28;20886;-72
2023/05/16 11:39:50;;;;;;;1999.90;999.90;;;14.80;99.90;;;;;;4995163;28;20501;-72
2023/05/16 11:42:16;;;;;;;1999.90;999.90;;;15.00;99.90;;;;;;4994836;28;20264;-72
2023/05/16 11:44:43;;;;;;;1999.90;999.90;;;15.10;99.90;;;;;;4995220;28;20249;-72
2023/05/16 11:47:09;;;;;;;1999.90;999.90;;;15.10;99.90;;;;;;4995224;28;20453;-72
2023/05/16 11:49:34;;;;;;;1999.90;999.90;;;15.00;99.90;;;;;;5008999;28;20444;-69
2023/05/16 11:52:01;;;;;;;1999.90;999.90;;;15.30;99.90;;;;;;5010951;28;20456;-69
2023/05/16 11:54:26;;;;;;;1999.90;999.90;;;15.80;99.90;;;;;;5010187;28;20184;-72
2023/05/16 11:56:53;;;;;;;1999.90;999.90;;;15.80;99.90;;;;;;5010827;28;20478;-73
2023/05/16 11:59:19;;;;;;;1999.90;999.90;;;15.50;99.90;;;;;;5010258;28;20192;-72
2023/05/16 12:01:47;;;;;;;1999.90;999.90;;;15.20;99.90;;;;;;5009655;28;20418;-72
2023/05/16 12:04:15;;;;;;;1999.90;999.90;;;14.90;99.90;;;;;;5010414;28;20489;-72
2023/05/16 12:06:44;;;;;;;1999.90;999.90;;;14.70;99.90;;;;;;5010434;28;20439;-72